Bo Venezuela, Puerto Rico
Current Conditions -  °F | °C
As of 9:56 PM on Monday 24 Nov 2014 (Local Time) from TJSJ Reporting Station
Broken Clouds Broken Clouds  
Wind Chill: 78°   Ceiling: 7000
Heat Index: 81°   Visibility: 10mi
Dew Point: 76°   Wind: 10mph
Humidity: 93%   Direction: 70°ENE
Pressure: 30.07"   Gusts: NA
Location:  18.3754°N, 66.0577°W
Report Text: TJSJ 250156Z 07009KT 10SM FEW019 SCT034 BKN070 26/24 A3007 RMK AO2 RAB45E55 SLP182 VCSH W P0001 T02560244
Loading
Personal Weather Stations






























Interactive Weather Map New forecast layout! Learn more

10-Day Weather Forecast

Advertisements
Track Severe Weather on mobile